Time;durP1;ratioP1;P1;durP2;ratioP2;P2;SDS_P1;SDS_P2;PMS_P1;PMS_P2;Temp;Humidity;BMP_temperature;BMP_pressure;BME280_temperature;BME280_humidity;BME280_pressure;Samples;Min_cycle;Max_cycle;Signal;HPM_P1;HPM_P2
2022/10/25 00:00:47;;;;;;;8.07;2.63;;;13.90;99.90;;;;;;5079659;28;20028;-78
2022/10/25 00:03:13;;;;;;;7.63;2.55;;;13.90;99.90;;;;;;5063715;28;20021;-78
2022/10/25 00:05:40;;;;;;;9.93;2.83;;;13.90;99.90;;;;;;5066167;28;20502;-79
2022/10/25 00:08:06;;;;;;;9.45;2.45;;;13.90;99.90;;;;;;5071743;28;20025;-78
2022/10/25 00:10:32;;;;;;;7.28;2.50;;;13.90;99.90;;;;;;5065037;28;20129;-79
2022/10/25 00:12:59;;;;;;;10.52;2.60;;;13.80;99.90;;;;;;5069572;28;20543;-78
2022/10/25 00:15:25;;;;;;;16.35;2.95;;;13.80;99.90;;;;;;5073553;28;20029;-81
2022/10/25 00:17:51;;;;;;;11.25;3.53;;;13.80;99.90;;;;;;5077786;28;20043;-79
2022/10/25 00:20:17;;;;;;;10.00;3.00;;;13.80;99.90;;;;;;5094305;28;20098;-79
2022/10/25 00:26:24;;;;;;;10.85;2.83;;;13.80;99.90;;;;;;5060480;28;20047;-80
2022/10/25 00:28:52;;;;;;;6.43;2.42;;;13.80;99.90;;;;;;5062114;28;20040;-78
2022/10/25 00:31:18;;;;;;;12.32;3.60;;;13.80;99.90;;;;;;5082015;28;20024;-78
2022/10/25 00:33:47;;;;;;;11.10;3.40;;;13.70;99.90;;;;;;5073412;28;20112;-77
2022/10/25 00:36:21;;;;;;;13.80;3.63;;;13.70;99.90;;;;;;5057757;28;20168;-78
2022/10/25 00:50:40;;;;;;;19.55;3.95;;;13.70;99.90;;;;;;5064363;28;20063;-78
2022/10/25 00:53:11;;;;;;;10.55;3.10;;;13.70;99.90;;;;;;5061560;28;20461;-79
2022/10/25 00:55:39;;;;;;;;;;;13.70;99.90;;;;;;5063036;28;21141;-78
2022/10/25 00:58:09;;;;;;;10.95;3.55;;;13.70;99.90;;;;;;5066590;28;19909;-78
2022/10/25 01:04:20;;;;;;;14.35;3.17;;;13.80;99.90;;;;;;5063886;28;20579;-79
2022/10/25 01:06:48;;;;;;;11.27;3.95;;;13.80;99.90;;;;;;5060966;28;20021;-77
2022/10/25 01:09:18;;;;;;;9.27;3.08;;;13.80;99.90;;;;;;5053605;28;20539;-77
2022/10/25 01:11:44;;;;;;;12.13;3.00;;;13.80;99.90;;;;;;5050950;28;20030;-78
2022/10/25 01:14:12;;;;;;;8.52;2.88;;;13.80;99.90;;;;;;5062179;28;20059;-77
2022/10/25 01:20:56;;;;;;;14.43;3.78;;;13.90;99.90;;;;;;5064368;28;20090;-77
2022/10/25 01:23:34;;;;;;;10.55;2.70;;;13.90;99.90;;;;;;5064628;28;20032;-77
2022/10/25 01:26:23;;;;;;;9.73;3.10;;;13.90;99.90;;;;;;5067068;28;20025;-79
2022/10/25 01:29:01;;;;;;;17.60;4.10;;;13.90;99.90;;;;;;5060652;28;20037;-77
2022/10/25 01:31:26;;;;;;;12.23;3.53;;;13.90;99.90;;;;;;5082835;28;20017;-80
2022/10/25 01:33:59;;;;;;;8.52;3.08;;;13.90;99.90;;;;;;5065489;28;20029;-80
2022/10/25 01:36:51;;;;;;;11.88;3.63;;;13.90;99.90;;;;;;5066298;28;20029;-78
2022/10/25 01:39:36;;;;;;;10.00;3.75;;;13.90;99.90;;;;;;5060488;28;20033;-77
2022/10/25 01:42:30;;;;;;;8.05;2.80;;;13.90;99.90;;;;;;5057424;28;20169;-77
2022/10/25 01:45:01;;;;;;;9.00;3.03;;;13.90;99.90;;;;;;5057611;28;20032;-78
2022/10/25 01:47:38;;;;;;;10.57;3.60;;;13.90;99.90;;;;;;5065528;28;20017;-78
2022/10/25 01:50:12;;;;;;;10.27;3.33;;;13.90;99.90;;;;;;5065392;28;20500;-78
2022/10/25 01:52:38;;;;;;;13.75;3.13;;;13.90;99.90;;;;;;5066318;28;20028;-78
2022/10/25 01:55:10;;;;;;;11.82;3.38;;;13.90;99.90;;;;;;5067191;28;20029;-78
2022/10/25 01:57:57;;;;;;;11.68;3.20;;;13.90;99.90;;;;;;5066185;28;20120;-78
2022/10/25 02:00:24;;;;;;;9.15;3.40;;;13.80;99.90;;;;;;5066259;28;20063;-80
2022/10/25 02:03:12;;;;;;;9.02;3.38;;;13.80;99.90;;;;;;5052806;28;20058;-79
2022/10/25 02:05:59;;;;;;;10.98;3.30;;;13.80;99.90;;;;;;5044004;28;20043;-79
2022/10/25 02:08:34;;;;;;;13.90;3.53;;;13.80;99.90;;;;;;5078522;28;20162;-80
2022/10/25 02:11:30;;;;;;;12.98;4.28;;;13.90;99.90;;;;;;5065050;28;20129;-79
2022/10/25 02:14:06;;;;;;;20.92;4.40;;;13.90;99.90;;;;;;5070805;28;20555;-79
2022/10/25 02:16:39;;;;;;;11.98;4.07;;;13.80;99.90;;;;;;5062195;28;20407;-78
2022/10/25 02:19:10;;;;;;;8.82;3.42;;;13.80;99.90;;;;;;5061172;28;20097;-78
2022/10/25 02:21:37;;;;;;;9.43;3.80;;;13.80;99.90;;;;;;5068446;28;20063;-78
2022/10/25 02:24:11;;;;;;;18.63;5.35;;;13.80;99.90;;;;;;5064588;28;20052;-78
2022/10/25 02:26:40;;;;;;;13.93;4.38;;;13.80;99.90;;;;;;5080448;28;20043;-79
2022/10/25 02:29:09;;;;;;;11.88;4.22;;;13.70;99.90;;;;;;5077216;28;20099;-79
2022/10/25 02:31:37;;;;;;;14.82;5.03;;;13.70;99.90;;;;;;5069846;28;20020;-78
2022/10/25 02:34:04;;;;;;;9.27;3.80;;;13.70;99.90;;;;;;5086932;28;20120;-79
2022/10/25 02:36:29;;;;;;;11.43;4.50;;;13.80;99.90;;;;;;5070031;28;20040;-79
2022/10/25 02:38:58;;;;;;;16.85;5.28;;;13.70;99.90;;;;;;5061425;28;20040;-79
2022/10/25 02:41:26;;;;;;;11.90;4.30;;;13.80;99.90;;;;;;5057792;28;20050;-78
2022/10/25 02:43:52;;;;;;;14.75;4.70;;;13.80;99.90;;;;;;5067470;28;20040;-78
2022/10/25 02:46:21;;;;;;;12.02;4.65;;;13.80;99.90;;;;;;5059910;28;20492;-78
2022/10/25 02:48:48;;;;;;;14.27;4.63;;;13.80;99.90;;;;;;5067643;28;20039;-79
2022/10/25 02:51:15;;;;;;;11.60;4.40;;;13.80;99.90;;;;;;5061481;28;20560;-78
2022/10/25 02:53:41;;;;;;;17.90;4.80;;;13.80;99.90;;;;;;5058152;28;20048;-80
2022/10/25 02:56:11;;;;;;;11.23;4.55;;;13.80;99.90;;;;;;5049263;28;20178;-78
2022/10/25 02:58:39;;;;;;;9.52;4.75;;;13.80;99.90;;;;;;5061885;28;20027;-79
2022/10/25 03:01:06;;;;;;;10.30;4.95;;;13.90;99.90;;;;;;5061216;28;20035;-79
2022/10/25 03:03:33;;;;;;;15.68;5.30;;;13.90;99.90;;;;;;5057650;28;20042;-79
2022/10/25 03:05:59;;;;;;;20.23;5.53;;;13.90;99.90;;;;;;5088183;28;20026;-80
2022/10/25 03:08:27;;;;;;;12.15;5.43;;;13.90;99.90;;;;;;5085185;28;20025;-78
2022/10/25 03:10:53;;;;;;;10.55;4.80;;;13.80;99.90;;;;;;5080905;28;20388;-77
2022/10/25 03:13:19;;;;;;;17.67;6.07;;;13.90;99.90;;;;;;5099544;28;20033;-78
2022/10/25 03:15:45;;;;;;;15.15;5.85;;;13.90;99.90;;;;;;5088476;28;20035;-78
2022/10/25 03:18:12;;;;;;;15.27;5.97;;;13.80;99.90;;;;;;5082821;28;20027;-79
2022/10/25 03:20:38;;;;;;;10.27;5.63;;;13.90;99.90;;;;;;5094305;28;20024;-78
2022/10/25 03:23:04;;;;;;;16.13;6.13;;;13.80;99.90;;;;;;5091511;28;20042;-78
2022/10/25 03:25:30;;;;;;;15.73;5.93;;;13.80;99.90;;;;;;5101013;28;20084;-79
2022/10/25 03:27:56;;;;;;;10.75;5.53;;;13.90;99.90;;;;;;5104145;28;20092;-80
2022/10/25 03:30:21;;;;;;;11.95;6.22;;;13.90;99.90;;;;;;5089263;28;20086;-78
2022/10/25 03:32:47;;;;;;;13.60;6.72;;;13.90;99.90;;;;;;5067828;28;20020;-79
2022/10/25 03:35:14;;;;;;;15.63;6.57;;;13.90;99.90;;;;;;5080411;28;20059;-78
2022/10/25 03:37:39;;;;;;;19.08;7.53;;;14.00;99.90;;;;;;5092429;28;20017;-79
2022/10/25 03:40:06;;;;;;;16.77;6.78;;;14.00;99.90;;;;;;5091345;28;20184;-78
2022/10/25 03:42:31;;;;;;;14.15;6.80;;;14.00;99.90;;;;;;5098919;28;20043;-78
2022/10/25 03:44:57;;;;;;;14.25;6.53;;;13.90;99.90;;;;;;5108708;28;20031;-79
2022/10/25 03:47:23;;;;;;;16.27;6.97;;;13.90;99.90;;;;;;5104681;28;20016;-78
2022/10/25 03:49:48;;;;;;;17.90;7.18;;;14.00;99.90;;;;;;5103979;27;20028;-78
2022/10/25 03:52:14;;;;;;;15.35;7.32;;;14.00;99.90;;;;;;5090781;28;20665;-78
2022/10/25 03:54:41;;;;;;;14.48;6.80;;;14.00;99.90;;;;;;5105227;28;20027;-78
2022/10/25 03:57:07;;;;;;;19.27;7.47;;;14.00;99.90;;;;;;5086703;28;20035;-79
2022/10/25 03:59:32;;;;;;;14.85;7.13;;;14.00;99.90;;;;;;5089470;28;20080;-79
2022/10/25 04:01:59;;;;;;;14.88;7.28;;;14.00;99.90;;;;;;5092674;28;20534;-79
2022/10/25 04:04:27;;;;;;;13.60;7.22;;;14.00;99.90;;;;;;5107016;28;20392;-78
2022/10/25 04:06:53;;;;;;;14.50;7.32;;;14.00;99.90;;;;;;5076090;28;20028;-78
2022/10/25 04:09:18;;;;;;;16.33;7.32;;;14.00;99.90;;;;;;5099489;28;20034;-78
2022/10/25 04:11:44;;;;;;;17.45;8.80;;;14.00;99.90;;;;;;5103154;28;20035;-77
2022/10/25 04:14:11;;;;;;;20.27;8.05;;;14.00;99.90;;;;;;5087211;28;20032;-77
2022/10/25 04:16:37;;;;;;;11.10;7.57;;;14.00;99.90;;;;;;5082842;28;20567;-77
2022/10/25 04:19:04;;;;;;;15.13;7.88;;;14.00;99.90;;;;;;5094422;28;20040;-77
2022/10/25 04:21:31;;;;;;;15.10;7.68;;;14.00;99.90;;;;;;5098095;27;20061;-78
2022/10/25 04:23:56;;;;;;;17.48;7.80;;;14.00;99.90;;;;;;5102897;28;20055;-77
2022/10/25 04:26:22;;;;;;;18.00;7.68;;;14.00;99.90;;;;;;5094558;28;20059;-81
2022/10/25 04:28:54;;;;;;;17.17;8.50;;;14.00;99.90;;;;;;5102981;27;20027;-81
2022/10/25 04:31:22;;;;;;;16.17;7.07;;;14.00;99.90;;;;;;5102675;27;20055;-81
2022/10/25 04:33:54;;;;;;;17.70;8.07;;;14.00;99.90;;;;;;5098831;28;20081;-82
2022/10/25 04:36:21;;;;;;;13.15;7.88;;;14.00;99.90;;;;;;5101305;28;20088;-78
2022/10/25 04:38:47;;;;;;;14.20;8.07;;;14.00;99.90;;;;;;5103647;28;20050;-78
2022/10/25 04:41:14;;;;;;;13.68;7.75;;;14.00;99.90;;;;;;5101350;28;20035;-81
2022/10/25 04:43:41;;;;;;;14.07;8.40;;;13.90;99.90;;;;;;5078281;28;20517;-79
2022/10/25 04:46:07;;;;;;;14.30;8.00;;;13.90;99.90;;;;;;5068651;28;20035;-73
2022/10/25 04:48:36;;;;;;;17.67;9.25;;;13.90;99.90;;;;;;5088608;28;20039;-74
2022/10/25 04:51:02;;;;;;;15.82;8.07;;;13.80;99.90;;;;;;5090062;28;20032;-74
2022/10/25 04:53:28;;;;;;;18.05;8.60;;;13.80;99.90;;;;;;5096746;28;20111;-74
2022/10/25 04:56:05;;;;;;;17.00;9.15;;;13.80;99.90;;;;;;5089968;28;20098;-74
2022/10/25 04:58:31;;;;;;;17.05;8.80;;;13.70;99.90;;;;;;5084906;28;20032;-73
2022/10/25 05:01:06;;;;;;;17.27;8.73;;;13.70;99.90;;;;;;5097757;28;20047;-72
2022/10/25 05:03:32;;;;;;;17.48;8.88;;;13.70;99.90;;;;;;5102852;27;20185;-78
2022/10/25 05:06:09;;;;;;;15.15;8.80;;;13.80;99.90;;;;;;5100325;28;20392;-82
2022/10/25 05:08:38;;;;;;;17.85;9.10;;;13.80;99.90;;;;;;5091261;28;20460;-79
2022/10/25 05:11:06;;;;;;;19.58;9.90;;;13.80;99.90;;;;;;5098764;27;20047;-79
2022/10/25 05:13:35;;;;;;;21.40;9.32;;;13.80;99.90;;;;;;5092577;28;20088;-82
2022/10/25 05:16:02;;;;;;;14.95;9.43;;;13.80;99.90;;;;;;5104515;27;20032;-78
2022/10/25 05:18:30;;;;;;;8.82;4.70;;;13.80;99.90;;;;;;5097121;28;20027;-81
2022/10/25 05:21:03;;;;;;;17.77;9.52;;;13.90;99.90;;;;;;5067019;28;20631;-79
2022/10/25 05:23:29;;;;;;;19.17;9.45;;;13.90;99.90;;;;;;5087860;28;20087;-79
2022/10/25 05:26:04;;;;;;;15.05;9.20;;;13.80;99.90;;;;;;5107838;28;20028;-79
2022/10/25 05:28:30;;;;;;;17.33;9.50;;;13.80;99.90;;;;;;5096206;28;20499;-80
2022/10/25 05:30:56;;;;;;;15.20;9.27;;;13.70;99.90;;;;;;5104015;28;20088;-79
2022/10/25 05:33:22;;;;;;;14.95;8.48;;;13.70;99.90;;;;;;5103738;28;20506;-80
2022/10/25 05:35:49;;;;;;;22.85;9.00;;;13.80;99.90;;;;;;5104258;28;20488;-79
2022/10/25 05:38:17;;;;;;;19.08;8.68;;;13.80;99.90;;;;;;5091425;28;20377;-78
2022/10/25 05:40:43;;;;;;;19.30;9.70;;;13.80;99.90;;;;;;5088078;28;20027;-79
2022/10/25 05:43:10;;;;;;;14.60;8.88;;;13.80;99.90;;;;;;5078312;28;20028;-82
2022/10/25 05:45:35;;;;;;;15.52;9.50;;;13.80;99.90;;;;;;5073855;28;20028;-79
2022/10/25 05:48:01;;;;;;;16.88;9.02;;;13.80;99.90;;;;;;5104158;28;20117;-81
2022/10/25 05:50:27;;;;;;;16.35;8.80;;;13.80;99.90;;;;;;5113056;27;20045;-81
2022/10/25 05:52:52;;;;;;;15.93;8.35;;;13.80;99.90;;;;;;5082551;28;20031;-79
2022/10/25 05:55:18;;;;;;;18.02;9.05;;;13.80;99.90;;;;;;5106339;27;20031;-80
2022/10/25 05:57:50;;;;;;;18.70;8.75;;;13.80;99.90;;;;;;5067984;28;20024;-78
2022/10/25 06:00:16;;;;;;;14.55;8.95;;;13.80;99.90;;;;;;5075084;28;20038;-81
2022/10/25 06:02:42;;;;;;;17.63;9.35;;;13.80;99.90;;;;;;5093746;28;20036;-79
2022/10/25 06:05:08;;;;;;;19.55;8.75;;;13.80;99.90;;;;;;5093581;28;20038;-79
2022/10/25 06:07:33;;;;;;;13.40;8.63;;;13.90;99.90;;;;;;5088349;28;20020;-80
2022/10/25 06:10:01;;;;;;;15.15;8.50;;;13.90;99.90;;;;;;5090419;28;20032;-81
2022/10/25 06:12:30;;;;;;;16.80;8.32;;;13.90;99.90;;;;;;5080558;28;20030;-80
2022/10/25 06:14:56;;;;;;;17.17;9.50;;;13.90;99.90;;;;;;5105437;27;20027;-80
2022/10/25 06:17:21;;;;;;;18.15;9.68;;;13.90;99.90;;;;;;5090036;28;20028;-79
2022/10/25 06:19:47;;;;;;;16.27;9.65;;;14.00;99.90;;;;;;5090834;28;20039;-78
2022/10/25 06:22:13;;;;;;;20.48;10.23;;;14.00;99.90;;;;;;5094964;28;20028;-79
2022/10/25 06:24:39;;;;;;;15.23;9.25;;;13.90;99.90;;;;;;5089535;28;20106;-79
2022/10/25 06:27:05;;;;;;;20.23;10.35;;;13.90;99.90;;;;;;5082969;28;20131;-78
2022/10/25 06:29:31;;;;;;;17.45;9.50;;;13.90;99.90;;;;;;5106749;28;20052;-78
2022/10/25 06:31:56;;;;;;;14.38;8.70;;;13.90;99.90;;;;;;5087812;28;20032;-78
2022/10/25 06:34:22;;;;;;;19.40;10.32;;;13.90;99.90;;;;;;5098370;28;20121;-78
2022/10/25 06:36:48;;;;;;;16.42;10.90;;;13.90;99.90;;;;;;5076004;28;20028;-78
2022/10/25 06:39:14;;;;;;;17.35;9.98;;;13.90;99.90;;;;;;5088637;28;20032;-78
2022/10/25 06:41:40;;;;;;;19.33;9.95;;;13.90;99.90;;;;;;5084791;28;20441;-78
2022/10/25 06:44:09;;;;;;;18.98;10.05;;;13.90;99.90;;;;;;5078800;28;20119;-77
2022/10/25 06:46:37;;;;;;;16.98;10.23;;;13.90;99.90;;;;;;5087014;28;20069;-78
2022/10/25 06:49:05;;;;;;;22.13;10.68;;;13.90;99.90;;;;;;5080264;28;20495;-77
2022/10/25 06:51:33;;;;;;;22.55;12.27;;;13.90;99.90;;;;;;5097992;28;20060;-78
2022/10/25 06:54:08;;;;;;;18.73;10.68;;;13.90;99.90;;;;;;5093029;28;20137;-78
2022/10/25 06:56:34;;;;;;;17.58;10.82;;;14.00;99.90;;;;;;5085353;28;20055;-77
2022/10/25 06:59:00;;;;;;;21.15;10.55;;;13.90;99.90;;;;;;5065256;28;20028;-78
2022/10/25 07:01:27;;;;;;;19.02;11.02;;;14.00;99.90;;;;;;5081073;28;20027;-78
2022/10/25 07:03:54;;;;;;;15.65;10.48;;;14.00;99.90;;;;;;5107164;28;20028;-78
2022/10/25 07:06:24;;;;;;;22.55;11.25;;;14.00;99.90;;;;;;5109655;28;20028;-79
2022/10/25 07:09:01;;;;;;;21.67;11.45;;;14.00;99.90;;;;;;5087216;28;20115;-78
2022/10/25 07:11:29;;;;;;;16.33;10.80;;;14.00;99.90;;;;;;5079807;28;20503;-79
2022/10/25 07:13:58;;;;;;;17.92;11.55;;;14.00;99.90;;;;;;5098765;28;20031;-79
2022/10/25 07:16:26;;;;;;;23.02;12.10;;;14.00;99.90;;;;;;5086288;28;20072;-77
2022/10/25 07:18:56;;;;;;;21.42;11.25;;;14.00;99.90;;;;;;5104059;28;20043;-78
2022/10/25 07:21:22;;;;;;;20.35;12.27;;;14.00;99.90;;;;;;5098892;28;20058;-78
2022/10/25 07:23:49;;;;;;;16.17;10.82;;;14.00;99.90;;;;;;5076563;28;20492;-79
2022/10/25 07:26:21;;;;;;;20.38;12.45;;;14.10;99.90;;;;;;5070773;28;20028;-79
2022/10/25 07:28:49;;;;;;;22.27;12.20;;;14.10;99.90;;;;;;5102747;28;20020;-77
2022/10/25 07:31:19;;;;;;;23.52;12.65;;;14.10;99.90;;;;;;5073525;28;20024;-78
2022/10/25 07:33:44;;;;;;;20.63;12.27;;;14.10;99.90;;;;;;5082664;28;20091;-78
2022/10/25 07:36:10;;;;;;;19.15;11.98;;;14.10;99.90;;;;;;5089811;28;20111;-79
2022/10/25 07:38:36;;;;;;;19.75;13.23;;;14.20;99.90;;;;;;5087268;28;20039;-77
2022/10/25 07:41:02;;;;;;;19.63;12.23;;;14.20;99.90;;;;;;5091220;28;20031;-78
2022/10/25 07:43:28;;;;;;;22.23;12.98;;;14.30;99.90;;;;;;5093120;28;20036;-78
2022/10/25 07:45:54;;;;;;;26.08;11.82;;;14.30;99.90;;;;;;5093609;28;20024;-78
2022/10/25 07:48:20;;;;;;;19.25;11.93;;;14.40;99.90;;;;;;5091656;28;20051;-78
2022/10/25 07:50:46;;;;;;;24.80;11.85;;;14.40;99.90;;;;;;5103702;28;20028;-78
2022/10/25 07:53:13;;;;;;;20.38;11.73;;;14.40;99.90;;;;;;5104294;28;20031;-78
2022/10/25 07:55:39;;;;;;;18.02;11.73;;;14.40;99.90;;;;;;5092838;28;20020;-78
2022/10/25 07:58:08;;;;;;;18.83;12.27;;;14.40;99.90;;;;;;5093244;28;20032;-77
2022/10/25 08:00:35;;;;;;;19.42;12.48;;;14.40;99.90;;;;;;5091033;28;20020;-79
2022/10/25 08:03:02;;;;;;;19.42;12.52;;;14.40;99.90;;;;;;5094419;28;21150;-80
2022/10/25 08:05:28;;;;;;;18.80;12.15;;;14.40;99.90;;;;;;5079060;28;20324;-78
2022/10/25 08:07:53;;;;;;;18.58;11.88;;;14.40;99.90;;;;;;5073532;28;20222;-77
2022/10/25 08:10:20;;;;;;;21.95;11.82;;;14.40;99.90;;;;;;5101780;28;20360;-78
2022/10/25 08:12:47;;;;;;;18.80;11.57;;;14.50;99.90;;;;;;5083454;28;20016;-78
2022/10/25 08:15:13;;;;;;;24.73;12.00;;;14.40;99.90;;;;;;5103798;28;20032;-79
2022/10/25 08:17:39;;;;;;;20.73;11.52;;;14.50;99.90;;;;;;5081501;28;20075;-79
2022/10/25 08:20:05;;;;;;;21.55;12.43;;;14.50;99.90;;;;;;5105417;28;20447;-79
2022/10/25 08:22:31;;;;;;;19.02;12.48;;;14.50;99.90;;;;;;5107859;28;20395;-79
2022/10/25 08:24:56;;;;;;;22.58;12.55;;;14.60;99.90;;;;;;5066915;28;20039;-78
2022/10/25 08:27:22;;;;;;;20.42;11.85;;;14.50;99.90;;;;;;5097955;28;20089;-80
2022/10/25 08:29:48;;;;;;;18.30;11.88;;;14.60;99.90;;;;;;5103539;28;20036;-80
2022/10/25 08:32:13;;;;;;;26.15;12.75;;;14.60;99.90;;;;;;5110327;28;20026;-80
2022/10/25 08:34:40;;;;;;;20.55;11.35;;;14.60;99.90;;;;;;5086507;28;20044;-80
2022/10/25 08:37:10;;;;;;;23.95;12.63;;;14.60;99.90;;;;;;5111833;27;20035;-78
2022/10/25 08:39:36;;;;;;;17.63;12.18;;;14.70;99.90;;;;;;5085861;28;20054;-79
2022/10/25 08:42:02;;;;;;;14.55;10.38;;;14.70;99.90;;;;;;5103024;28;20052;-80
2022/10/25 08:44:43;;;;;;;16.60;11.00;;;14.70;99.90;;;;;;5097290;28;20035;-81
2022/10/25 08:47:33;;;;;;;22.10;12.27;;;14.80;99.90;;;;;;5105315;27;20036;-79
2022/10/25 08:50:11;;;;;;;23.77;12.60;;;14.80;99.90;;;;;;5081796;28;20456;-79
2022/10/25 08:52:39;;;;;;;19.83;11.85;;;14.80;99.90;;;;;;5074146;28;20115;-80
2022/10/25 08:55:29;;;;;;;21.95;11.65;;;14.80;99.90;;;;;;5114104;27;20034;-80
2022/10/25 08:57:58;;;;;;;19.17;11.53;;;14.70;99.90;;;;;;5087825;28;20035;-79
2022/10/25 09:00:24;;;;;;;17.38;10.98;;;14.70;99.90;;;;;;5093127;28;20028;-77
2022/10/25 09:02:51;;;;;;;21.23;9.55;;;14.80;99.90;;;;;;5089090;28;20553;-78
2022/10/25 09:05:38;;;;;;;16.65;9.48;;;14.80;99.90;;;;;;5068904;28;20058;-79
2022/10/25 09:08:19;;;;;;;19.13;8.82;;;14.80;99.90;;;;;;5100396;28;20046;-78
2022/10/25 09:11:08;;;;;;;15.38;8.80;;;14.80;99.90;;;;;;5089498;28;20031;-78
2022/10/25 09:13:40;;;;;;;15.65;8.57;;;14.80;99.90;;;;;;5079533;28;20052;-78
2022/10/25 09:16:26;;;;;;;19.88;9.27;;;14.80;99.90;;;;;;5074021;28;20464;-79
2022/10/25 09:18:54;;;;;;;17.50;8.07;;;14.80;99.90;;;;;;5085633;28;20039;-78
2022/10/25 09:21:34;;;;;;;15.75;7.95;;;14.90;99.90;;;;;;5110308;28;20085;-81
2022/10/25 09:24:14;;;;;;;13.00;7.43;;;14.90;99.90;;;;;;5081439;28;20039;-78
2022/10/25 09:26:45;;;;;;;20.52;8.20;;;15.00;99.90;;;;;;5101363;28;20023;-79
2022/10/25 09:29:32;;;;;;;20.73;7.88;;;15.10;99.90;;;;;;5087221;28;20031;-79
2022/10/25 09:32:01;;;;;;;16.38;7.40;;;15.10;99.90;;;;;;5086038;28;20467;-79
2022/10/25 09:34:31;;;;;;;16.33;7.15;;;15.20;99.90;;;;;;5106719;27;20039;-79
2022/10/25 09:37:35;;;;;;;16.95;6.80;;;15.20;99.90;;;;;;5093363;28;20184;-78
2022/10/25 09:40:13;;;;;;;19.13;7.45;;;15.40;99.90;;;;;;5088669;28;20047;-79
2022/10/25 09:42:45;;;;;;;16.95;7.07;;;15.40;99.90;;;;;;5077527;28;20031;-79
2022/10/25 09:45:20;;;;;;;15.10;7.03;;;15.40;99.90;;;;;;5091852;28;20028;-79
2022/10/25 09:48:24;;;;;;;18.90;6.97;;;15.30;99.90;;;;;;5106006;28;20023;-78
2022/10/25 09:51:08;;;;;;;15.10;7.05;;;15.30;99.90;;;;;;5093231;28;20085;-78
2022/10/25 09:53:39;;;;;;;13.85;6.07;;;15.30;99.90;;;;;;5092073;28;20057;-81
2022/10/25 09:56:05;;;;;;;10.93;5.25;;;15.30;99.90;;;;;;5069344;28;20056;-80
2022/10/25 09:58:39;;;;;;;15.18;6.07;;;15.30;99.90;;;;;;5081905;28;20067;-80
2022/10/25 10:01:10;;;;;;;14.18;5.55;;;15.20;99.90;;;;;;5066709;28;20028;-81
2022/10/25 10:03:36;;;;;;;10.57;4.60;;;15.20;99.90;;;;;;5099973;28;20032;-78
2022/10/25 10:06:15;;;;;;;7.32;3.83;;;15.20;99.90;;;;;;5102590;28;20513;-78
2022/10/25 10:09:18;;;;;;;12.85;6.03;;;15.20;99.90;;;;;;5090290;28;20026;-78
2022/10/25 10:11:46;;;;;;;11.32;5.15;;;15.30;99.90;;;;;;5045980;28;20499;-79
2022/10/25 10:14:30;;;;;;;12.45;4.85;;;15.30;99.90;;;;;;5078460;28;20063;-78
2022/10/25 10:16:58;;;;;;;14.65;5.45;;;15.30;99.90;;;;;;5093080;28;20020;-80
2022/10/25 10:19:28;;;;;;;12.93;4.88;;;15.40;99.90;;;;;;5097222;28;20051;-79
2022/10/25 10:21:59;;;;;;;17.48;5.80;;;15.40;99.90;;;;;;5108603;28;20019;-79
2022/10/25 10:24:31;;;;;;;18.55;5.78;;;15.50;99.90;;;;;;5096413;28;20028;-79
2022/10/25 10:26:59;;;;;;;11.70;5.00;;;16.10;99.90;;;;;;5097957;28;20445;-79
2022/10/25 10:29:28;;;;;;;18.73;4.38;;;16.30;99.90;;;;;;5105672;28;20020;-79
2022/10/25 10:31:59;;;;;;;16.17;5.03;;;16.50;99.90;;;;;;5088987;28;20469;-82
2022/10/25 10:34:32;;;;;;;13.73;4.63;;;16.50;99.90;;;;;;5097667;28;20502;-81
2022/10/25 10:37:06;;;;;;;15.98;4.50;;;16.80;99.90;;;;;;5097201;28;20515;-80
2022/10/25 10:39:33;;;;;;;11.93;4.47;;;16.80;99.90;;;;;;5078008;28;20084;-80
2022/10/25 10:42:12;;;;;;;11.77;4.13;;;16.80;99.90;;;;;;5086903;28;20027;-81
2022/10/25 10:44:38;;;;;;;14.98;4.43;;;16.70;99.90;;;;;;5079292;28;20376;-82
2022/10/25 10:47:11;;;;;;;12.90;4.30;;;16.60;99.90;;;;;;5100833;28;20031;-80
2022/10/25 10:49:41;;;;;;;10.50;3.70;;;16.50;99.90;;;;;;5105252;27;20020;-85
2022/10/25 10:52:30;;;;;;;11.00;3.83;;;16.40;99.90;;;;;;5108142;28;20040;-80
2022/10/25 10:54:56;;;;;;;9.63;3.55;;;16.50;99.90;;;;;;5104333;28;20099;-72
2022/10/25 10:57:33;;;;;;;16.10;4.20;;;16.50;99.90;;;;;;5101592;28;20038;-72
2022/10/25 11:00:01;;;;;;;12.48;4.43;;;16.50;99.90;;;;;;5080116;28;20119;-71
2022/10/25 11:02:35;;;;;;;9.98;3.60;;;16.30;99.90;;;;;;5084962;28;20089;-71
2022/10/25 11:05:01;;;;;;;9.57;3.05;;;16.30;99.90;;;;;;5083149;28;20035;-71
2022/10/25 11:07:33;;;;;;;13.00;4.10;;;16.20;99.90;;;;;;5097427;28;20498;-73
2022/10/25 11:10:14;;;;;;;10.88;4.05;;;16.10;99.90;;;;;;5090742;28;20020;-72
2022/10/25 11:12:40;;;;;;;13.68;3.47;;;16.10;99.90;;;;;;5085351;28;20022;-74
2022/10/25 11:15:16;;;;;;;8.20;3.58;;;16.10;99.90;;;;;;5096626;28;20035;-75
2022/10/25 11:17:57;;;;;;;9.65;3.45;;;16.10;99.90;;;;;;5083008;28;20059;-73
2022/10/25 11:20:51;;;;;;;11.48;3.70;;;16.00;99.90;;;;;;5082373;28;20039;-74
2022/10/25 11:23:47;;;;;;;9.38;3.20;;;16.00;99.90;;;;;;5103087;28;20032;-75
2022/10/25 11:26:41;;;;;;;9.85;3.35;;;16.00;99.90;;;;;;5089173;28;20028;-73
2022/10/25 11:29:20;;;;;;;13.63;3.15;;;16.10;99.90;;;;;;5085865;28;20023;-72
2022/10/25 11:32:15;;;;;;;12.65;3.20;;;16.10;99.90;;;;;;5096718;28;20110;-75
2022/10/25 11:34:53;;;;;;;12.85;2.95;;;16.10;99.90;;;;;;5103157;28;20028;-73
2022/10/25 11:37:30;;;;;;;11.55;3.00;;;16.00;99.90;;;;;;5115001;28;20053;-81
2022/10/25 11:40:28;;;;;;;7.78;3.20;;;16.00;99.90;;;;;;5106702;28;20031;-78
2022/10/25 11:43:21;;;;;;;9.82;3.45;;;16.20;99.90;;;;;;5102555;28;20036;-81
2022/10/25 11:46:03;;;;;;;11.20;4.47;;;16.30;99.90;;;;;;5104800;28;20069;-81
2022/10/25 11:48:53;;;;;;;10.45;2.60;;;16.30;99.90;;;;;;5091022;28;20043;-81
2022/10/25 11:51:57;;;;;;;11.57;2.78;;;16.40;99.90;;;;;;5109059;28;20139;-80
2022/10/25 11:54:36;;;;;;;6.30;2.47;;;16.30;99.90;;;;;;5101706;28;20016;-82
2022/10/25 11:57:41;;;;;;;8.35;2.70;;;16.30;99.90;;;;;;5087234;28;20031;-81
2022/10/25 12:00:14;;;;;;;10.52;2.60;;;16.40;99.90;;;;;;5112877;28;20203;-80
2022/10/25 12:03:08;;;;;;;9.23;2.50;;;16.40;99.90;;;;;;5111606;28;20054;-81
2022/10/25 12:05:46;;;;;;;8.55;2.40;;;16.40;99.90;;;;;;5101512;28;20399;-80
2022/10/25 12:08:12;;;;;;;9.27;2.60;;;16.40;99.90;;;;;;5086369;28;20032;-80
2022/10/25 12:10:46;;;;;;;9.40;2.85;;;16.50;99.90;;;;;;5108972;28;20524;-80
2022/10/25 12:13:18;;;;;;;8.75;2.78;;;16.50;99.90;;;;;;5104883;28;20379;-80
2022/10/25 12:15:48;;;;;;;9.80;2.47;;;16.40;99.90;;;;;;5107431;28;20020;-81
2022/10/25 12:18:24;;;;;;;8.07;2.22;;;16.30;99.90;;;;;;5117687;28;20054;-82
2022/10/25 12:20:51;;;;;;;10.30;2.53;;;16.40;99.90;;;;;;5098973;28;20019;-81
2022/10/25 12:23:20;;;;;;;8.32;2.20;;;16.40;99.90;;;;;;5086875;28;20024;-80
2022/10/25 12:25:51;;;;;;;10.63;2.47;;;16.50;99.90;;;;;;5098908;28;20024;-82
2022/10/25 12:28:26;;;;;;;12.27;3.35;;;16.60;99.90;;;;;;5084129;28;20035;-83
2022/10/25 12:30:58;;;;;;;9.32;2.92;;;16.60;99.90;;;;;;5094755;28;20497;-80
2022/10/25 12:33:30;;;;;;;7.70;3.10;;;16.60;99.90;;;;;;5092507;28;20107;-79
2022/10/25 12:36:01;;;;;;;8.95;3.13;;;16.60;99.90;;;;;;5120201;28;20023;-81
2022/10/25 12:38:36;;;;;;;9.98;2.72;;;16.60;99.90;;;;;;5117039;28;20079;-80
2022/10/25 12:41:23;;;;;;;11.68;2.60;;;16.60;99.90;;;;;;5105024;28;20035;-82
2022/10/25 12:44:09;;;;;;;8.95;2.88;;;16.70;99.90;;;;;;5108292;28;20031;-82
2022/10/25 12:47:07;;;;;;;11.50;2.72;;;16.70;99.90;;;;;;5104971;28;20033;-81
2022/10/25 12:49:47;;;;;;;11.38;2.22;;;16.70;99.90;;;;;;5104324;28;20523;-81
2022/10/25 12:52:36;;;;;;;11.90;2.25;;;16.70;99.90;;;;;;5085772;28;20024;-80
2022/10/25 12:55:20;;;;;;;7.13;2.20;;;16.70;99.90;;;;;;5107989;28;20035;-80
2022/10/25 12:58:07;;;;;;;7.30;2.38;;;16.60;99.90;;;;;;5108190;28;20030;-81
2022/10/25 13:00:57;;;;;;;8.90;2.08;;;16.50;99.90;;;;;;5106893;28;20023;-82
2022/10/25 13:03:32;;;;;;;10.15;2.22;;;16.50;99.90;;;;;;5105871;28;20032;-81
2022/10/25 13:06:24;;;;;;;8.05;2.20;;;16.40;99.90;;;;;;5088977;28;20031;-80
2022/10/25 13:08:50;;;;;;;7.50;2.03;;;16.40;99.90;;;;;;5108466;28;20026;-80
2022/10/25 13:11:16;;;;;;;9.50;1.95;;;16.40;99.90;;;;;;5102540;28;20028;-80
2022/10/25 13:13:54;;;;;;;12.02;2.72;;;16.40;99.90;;;;;;5087961;28;20691;-79
2022/10/25 13:16:30;;;;;;;8.70;2.20;;;16.30;99.90;;;;;;5091316;28;20096;-79
2022/10/25 13:19:20;;;;;;;8.68;2.10;;;16.20;99.90;;;;;;5101585;28;20020;-79
2022/10/25 13:21:52;;;;;;;6.60;2.53;;;16.20;99.90;;;;;;5118385;27;20082;-81
2022/10/25 13:24:47;;;;;;;4.93;1.95;;;16.10;99.90;;;;;;5093157;28;20078;-80